sensor_id;sensor_type;location;lat;lon;timestamp;temperature;humidity
11540;DHT22;5826;54.756;9.192;2023-07-08T00:02:11;15.90;99.90
11540;DHT22;5826;54.756;9.192;2023-07-08T00:04:38;15.90;99.90
11540;DHT22;5826;54.756;9.192;2023-07-08T00:07:04;15.90;99.90
11540;DHT22;5826;54.756;9.192;2023-07-08T00:09:29;15.90;99.90
11540;DHT22;5826;54.756;9.192;2023-07-08T00:11:56;15.80;99.90
11540;DHT22;5826;54.756;9.192;2023-07-08T00:14:23;15.80;99.90
11540;DHT22;5826;54.756;9.192;2023-07-08T00:16:48;15.80;99.90
11540;DHT22;5826;54.756;9.192;2023-07-08T00:19:15;15.70;99.90
11540;DHT22;5826;54.756;9.192;2023-07-08T00:21:44;15.70;99.90
11540;DHT22;5826;54.756;9.192;2023-07-08T00:24:10;15.70;99.90
11540;DHT22;5826;54.756;9.192;2023-07-08T00:26:35;15.70;99.90
11540;DHT22;5826;54.756;9.192;2023-07-08T00:29:01;15.60;99.90
11540;DHT22;5826;54.756;9.192;2023-07-08T00:31:27;15.60;99.90
11540;DHT22;5826;54.756;9.192;2023-07-08T00:33:53;15.60;99.90
11540;DHT22;5826;54.756;9.192;2023-07-08T00:36:21;15.60;99.90
11540;DHT22;5826;54.756;9.192;2023-07-08T00:38:47;15.60;99.90
11540;DHT22;5826;54.756;9.192;2023-07-08T00:41:20;15.50;99.90
11540;DHT22;5826;54.756;9.192;2023-07-08T00:43:52;15.50;99.90
11540;DHT22;5826;54.756;9.192;2023-07-08T00:51:33;15.50;99.90
11540;DHT22;5826;54.756;9.192;2023-07-08T00:53:59;15.50;99.90
11540;DHT22;5826;54.756;9.192;2023-07-08T00:56:38;15.40;99.90
11540;DHT22;5826;54.756;9.192;2023-07-08T00:59:33;15.40;99.90
11540;DHT22;5826;54.756;9.192;2023-07-08T01:02:03;15.40;99.90
11540;DHT22;5826;54.756;9.192;2023-07-08T01:04:39;15.30;99.90
11540;DHT22;5826;54.756;9.192;2023-07-08T01:07:08;15.30;99.90
11540;DHT22;5826;54.756;9.192;2023-07-08T01:09:43;15.30;99.90
11540;DHT22;5826;54.756;9.192;2023-07-08T01:12:14;15.30;99.90
11540;DHT22;5826;54.756;9.192;2023-07-08T01:14:42;15.20;99.90
11540;DHT22;5826;54.756;9.192;2023-07-08T01:17:10;15.20;99.90
11540;DHT22;5826;54.756;9.192;2023-07-08T01:19:43;15.20;99.90
11540;DHT22;5826;54.756;9.192;2023-07-08T01:22:10;15.20;99.90
11540;DHT22;5826;54.756;9.192;2023-07-08T01:24:38;15.10;99.90
11540;DHT22;5826;54.756;9.192;2023-07-08T01:27:06;15.10;99.90
11540;DHT22;5826;54.756;9.192;2023-07-08T01:29:32;15.10;99.90
11540;DHT22;5826;54.756;9.192;2023-07-08T01:31:59;15.10;99.90
11540;DHT22;5826;54.756;9.192;2023-07-08T01:34:28;15.10;99.90
11540;DHT22;5826;54.756;9.192;2023-07-08T01:36:55;15.10;99.90
11540;DHT22;5826;54.756;9.192;2023-07-08T01:39:23;15.10;99.90
11540;DHT22;5826;54.756;9.192;2023-07-08T01:41:49;15.00;99.90
11540;DHT22;5826;54.756;9.192;2023-07-08T01:44:27;15.00;99.90
11540;DHT22;5826;54.756;9.192;2023-07-08T01:46:54;15.00;99.90
11540;DHT22;5826;54.756;9.192;2023-07-08T01:49:21;15.00;99.90
11540;DHT22;5826;54.756;9.192;2023-07-08T01:51:48;15.00;99.90
11540;DHT22;5826;54.756;9.192;2023-07-08T01:54:14;15.00;99.90
11540;DHT22;5826;54.756;9.192;2023-07-08T01:56:40;15.00;99.90
11540;DHT22;5826;54.756;9.192;2023-07-08T01:59:05;14.90;99.90
11540;DHT22;5826;54.756;9.192;2023-07-08T02:01:31;14.90;99.90
11540;DHT22;5826;54.756;9.192;2023-07-08T02:03:56;14.90;99.90
11540;DHT22;5826;54.756;9.192;2023-07-08T02:06:22;14.90;99.90
11540;DHT22;5826;54.756;9.192;2023-07-08T02:08:47;14.90;99.90
11540;DHT22;5826;54.756;9.192;2023-07-08T02:11:13;14.90;99.90
11540;DHT22;5826;54.756;9.192;2023-07-08T02:13:38;14.80;99.90
11540;DHT22;5826;54.756;9.192;2023-07-08T02:16:06;14.80;99.90
11540;DHT22;5826;54.756;9.192;2023-07-08T02:18:32;14.80;99.90
11540;DHT22;5826;54.756;9.192;2023-07-08T02:20:58;14.80;99.90
11540;DHT22;5826;54.756;9.192;2023-07-08T02:23:25;14.80;99.90
11540;DHT22;5826;54.756;9.192;2023-07-08T02:25:52;14.70;99.90
11540;DHT22;5826;54.756;9.192;2023-07-08T02:28:18;14.80;99.90
11540;DHT22;5826;54.756;9.192;2023-07-08T02:30:43;14.70;99.90
11540;DHT22;5826;54.756;9.192;2023-07-08T02:33:11;14.70;99.90
11540;DHT22;5826;54.756;9.192;2023-07-08T02:35:36;14.70;99.90
11540;DHT22;5826;54.756;9.192;2023-07-08T02:38:02;14.70;99.90
11540;DHT22;5826;54.756;9.192;2023-07-08T02:40:28;14.60;99.90
11540;DHT22;5826;54.756;9.192;2023-07-08T02:42:54;14.60;99.90
11540;DHT22;5826;54.756;9.192;2023-07-08T02:45:19;14.60;99.90
11540;DHT22;5826;54.756;9.192;2023-07-08T02:47:45;14.60;99.90
11540;DHT22;5826;54.756;9.192;2023-07-08T02:50:11;14.50;99.90
11540;DHT22;5826;54.756;9.192;2023-07-08T02:52:37;14.60;99.90
11540;DHT22;5826;54.756;9.192;2023-07-08T02:55:03;14.50;99.90
11540;DHT22;5826;54.756;9.192;2023-07-08T02:57:28;14.50;99.90
11540;DHT22;5826;54.756;9.192;2023-07-08T02:59:54;14.50;99.90
11540;DHT22;5826;54.756;9.192;2023-07-08T03:02:21;14.50;99.90
11540;DHT22;5826;54.756;9.192;2023-07-08T03:04:47;14.50;99.90
11540;DHT22;5826;54.756;9.192;2023-07-08T03:07:15;14.50;99.90
11540;DHT22;5826;54.756;9.192;2023-07-08T03:09:41;14.50;99.90
11540;DHT22;5826;54.756;9.192;2023-07-08T03:12:09;14.50;99.90
11540;DHT22;5826;54.756;9.192;2023-07-08T03:14:35;14.50;99.90
11540;DHT22;5826;54.756;9.192;2023-07-08T03:17:01;14.50;99.90
11540;DHT22;5826;54.756;9.192;2023-07-08T03:19:27;14.50;99.90
11540;DHT22;5826;54.756;9.192;2023-07-08T03:21:53;14.60;99.90
11540;DHT22;5826;54.756;9.192;2023-07-08T03:24:18;14.60;99.90
11540;DHT22;5826;54.756;9.192;2023-07-08T03:26:45;14.60;99.90
11540;DHT22;5826;54.756;9.192;2023-07-08T03:29:18;14.60;99.90
11540;DHT22;5826;54.756;9.192;2023-07-08T03:31:45;14.60;99.90
11540;DHT22;5826;54.756;9.192;2023-07-08T03:34:11;14.60;99.90
11540;DHT22;5826;54.756;9.192;2023-07-08T03:36:46;14.60;99.90
11540;DHT22;5826;54.756;9.192;2023-07-08T03:39:18;14.60;99.90
11540;DHT22;5826;54.756;9.192;2023-07-08T03:41:44;14.60;99.90
11540;DHT22;5826;54.756;9.192;2023-07-08T03:44:10;14.70;99.90
11540;DHT22;5826;54.756;9.192;2023-07-08T03:46:36;14.70;99.90
11540;DHT22;5826;54.756;9.192;2023-07-08T03:49:02;14.70;99.90
11540;DHT22;5826;54.756;9.192;2023-07-08T03:51:33;14.70;99.90
11540;DHT22;5826;54.756;9.192;2023-07-08T03:54:00;14.70;99.90
11540;DHT22;5826;54.756;9.192;2023-07-08T03:56:26;14.80;99.90
11540;DHT22;5826;54.756;9.192;2023-07-08T03:58:51;14.80;99.90
11540;DHT22;5826;54.756;9.192;2023-07-08T04:01:19;14.80;99.90
11540;DHT22;5826;54.756;9.192;2023-07-08T04:03:56;14.80;99.90
11540;DHT22;5826;54.756;9.192;2023-07-08T04:06:23;14.80;99.90
11540;DHT22;5826;54.756;9.192;2023-07-08T04:08:48;14.90;99.90
11540;DHT22;5826;54.756;9.192;2023-07-08T04:11:16;14.90;99.90
11540;DHT22;5826;54.756;9.192;2023-07-08T04:13:42;14.80;99.90
11540;DHT22;5826;54.756;9.192;2023-07-08T04:16:15;14.90;99.90
11540;DHT22;5826;54.756;9.192;2023-07-08T04:18:41;15.00;99.90
11540;DHT22;5826;54.756;9.192;2023-07-08T04:21:07;15.00;99.90
11540;DHT22;5826;54.756;9.192;2023-07-08T04:23:32;15.10;99.90
11540;DHT22;5826;54.756;9.192;2023-07-08T04:25:58;15.10;99.90
11540;DHT22;5826;54.756;9.192;2023-07-08T04:28:24;15.20;99.90
11540;DHT22;5826;54.756;9.192;2023-07-08T04:30:49;15.20;99.90
11540;DHT22;5826;54.756;9.192;2023-07-08T04:33:16;15.20;99.90
11540;DHT22;5826;54.756;9.192;2023-07-08T04:35:43;15.30;99.90
11540;DHT22;5826;54.756;9.192;2023-07-08T04:38:19;15.30;99.90
11540;DHT22;5826;54.756;9.192;2023-07-08T04:40:47;15.40;99.90
11540;DHT22;5826;54.756;9.192;2023-07-08T04:43:12;15.50;99.90
11540;DHT22;5826;54.756;9.192;2023-07-08T04:45:39;15.50;99.90
11540;DHT22;5826;54.756;9.192;2023-07-08T04:48:05;15.60;99.90
11540;DHT22;5826;54.756;9.192;2023-07-08T04:50:40;15.70;99.90
11540;DHT22;5826;54.756;9.192;2023-07-08T04:53:05;15.80;99.90
11540;DHT22;5826;54.756;9.192;2023-07-08T04:55:31;15.80;99.90
11540;DHT22;5826;54.756;9.192;2023-07-08T04:57:56;15.90;99.90
11540;DHT22;5826;54.756;9.192;2023-07-08T05:00:22;16.00;99.90
11540;DHT22;5826;54.756;9.192;2023-07-08T05:02:47;16.00;99.90
11540;DHT22;5826;54.756;9.192;2023-07-08T05:05:13;16.20;99.90
11540;DHT22;5826;54.756;9.192;2023-07-08T05:07:38;16.20;99.90
11540;DHT22;5826;54.756;9.192;2023-07-08T05:10:04;16.30;99.90
11540;DHT22;5826;54.756;9.192;2023-07-08T05:12:30;16.30;99.90
11540;DHT22;5826;54.756;9.192;2023-07-08T05:14:55;16.40;99.90
11540;DHT22;5826;54.756;9.192;2023-07-08T05:17:21;16.40;99.90
11540;DHT22;5826;54.756;9.192;2023-07-08T05:19:46;16.50;99.90
11540;DHT22;5826;54.756;9.192;2023-07-08T05:22:16;16.50;99.90
11540;DHT22;5826;54.756;9.192;2023-07-08T05:24:43;16.60;99.90
11540;DHT22;5826;54.756;9.192;2023-07-08T05:27:08;16.60;99.90
11540;DHT22;5826;54.756;9.192;2023-07-08T05:29:34;16.70;99.90
11540;DHT22;5826;54.756;9.192;2023-07-08T05:32:00;16.80;99.90
11540;DHT22;5826;54.756;9.192;2023-07-08T05:34:25;16.80;99.90
11540;DHT22;5826;54.756;9.192;2023-07-08T05:36:51;16.90;99.90
11540;DHT22;5826;54.756;9.192;2023-07-08T05:39:16;16.90;99.90
11540;DHT22;5826;54.756;9.192;2023-07-08T05:41:42;17.00;99.90
11540;DHT22;5826;54.756;9.192;2023-07-08T05:44:07;17.10;99.90
11540;DHT22;5826;54.756;9.192;2023-07-08T05:46:33;17.10;99.90
11540;DHT22;5826;54.756;9.192;2023-07-08T05:48:58;17.20;99.90
11540;DHT22;5826;54.756;9.192;2023-07-08T05:51:24;17.20;99.90
11540;DHT22;5826;54.756;9.192;2023-07-08T05:53:49;17.30;99.90
11540;DHT22;5826;54.756;9.192;2023-07-08T05:56:14;17.30;99.90
11540;DHT22;5826;54.756;9.192;2023-07-08T05:58:40;17.40;99.90
11540;DHT22;5826;54.756;9.192;2023-07-08T06:01:05;17.50;99.90
11540;DHT22;5826;54.756;9.192;2023-07-08T06:03:31;17.60;99.90
11540;DHT22;5826;54.756;9.192;2023-07-08T06:05:56;17.70;99.90
11540;DHT22;5826;54.756;9.192;2023-07-08T06:08:22;17.80;99.90
11540;DHT22;5826;54.756;9.192;2023-07-08T06:10:48;17.90;99.90
11540;DHT22;5826;54.756;9.192;2023-07-08T06:13:14;18.00;99.90
11540;DHT22;5826;54.756;9.192;2023-07-08T06:15:40;18.10;99.90
11540;DHT22;5826;54.756;9.192;2023-07-08T06:18:06;18.20;99.90
11540;DHT22;5826;54.756;9.192;2023-07-08T06:20:31;18.20;99.90
11540;DHT22;5826;54.756;9.192;2023-07-08T06:22:57;18.30;99.90
11540;DHT22;5826;54.756;9.192;2023-07-08T06:25:22;18.40;99.90
11540;DHT22;5826;54.756;9.192;2023-07-08T06:27:48;18.50;99.90
11540;DHT22;5826;54.756;9.192;2023-07-08T06:30:14;18.60;99.90
11540;DHT22;5826;54.756;9.192;2023-07-08T06:32:39;18.60;99.90
11540;DHT22;5826;54.756;9.192;2023-07-08T06:35:05;18.70;99.90
11540;DHT22;5826;54.756;9.192;2023-07-08T06:37:31;18.80;99.90
11540;DHT22;5826;54.756;9.192;2023-07-08T06:39:56;18.90;99.90
11540;DHT22;5826;54.756;9.192;2023-07-08T06:42:22;19.00;99.90
11540;DHT22;5826;54.756;9.192;2023-07-08T06:44:47;19.10;99.90
11540;DHT22;5826;54.756;9.192;2023-07-08T06:47:19;19.10;99.90
11540;DHT22;5826;54.756;9.192;2023-07-08T06:49:46;19.20;99.90
11540;DHT22;5826;54.756;9.192;2023-07-08T06:52:12;19.30;99.90
11540;DHT22;5826;54.756;9.192;2023-07-08T06:54:37;19.30;99.90
11540;DHT22;5826;54.756;9.192;2023-07-08T06:57:03;19.50;99.90
11540;DHT22;5826;54.756;9.192;2023-07-08T06:59:28;19.50;99.90
11540;DHT22;5826;54.756;9.192;2023-07-08T07:01:54;19.60;99.90
11540;DHT22;5826;54.756;9.192;2023-07-08T07:04:20;19.70;99.90
11540;DHT22;5826;54.756;9.192;2023-07-08T07:06:45;19.80;99.90
11540;DHT22;5826;54.756;9.192;2023-07-08T07:09:11;19.80;99.90
11540;DHT22;5826;54.756;9.192;2023-07-08T07:11:36;19.90;99.90
11540;DHT22;5826;54.756;9.192;2023-07-08T07:14:02;19.90;99.90
11540;DHT22;5826;54.756;9.192;2023-07-08T07:16:28;20.10;99.90
11540;DHT22;5826;54.756;9.192;2023-07-08T07:18:53;20.10;99.90
11540;DHT22;5826;54.756;9.192;2023-07-08T07:21:19;20.20;99.90
11540;DHT22;5826;54.756;9.192;2023-07-08T07:23:45;20.30;99.90
11540;DHT22;5826;54.756;9.192;2023-07-08T07:26:10;20.30;99.90
11540;DHT22;5826;54.756;9.192;2023-07-08T07:28:36;20.40;99.90
11540;DHT22;5826;54.756;9.192;2023-07-08T07:31:03;20.50;99.90
11540;DHT22;5826;54.756;9.192;2023-07-08T07:33:31;20.60;99.90
11540;DHT22;5826;54.756;9.192;2023-07-08T07:35:57;20.70;99.90
11540;DHT22;5826;54.756;9.192;2023-07-08T07:38:23;20.70;99.90
11540;DHT22;5826;54.756;9.192;2023-07-08T07:40:54;20.70;99.90
11540;DHT22;5826;54.756;9.192;2023-07-08T07:43:19;20.80;99.90
11540;DHT22;5826;54.756;9.192;2023-07-08T07:45:45;20.90;99.90
11540;DHT22;5826;54.756;9.192;2023-07-08T07:48:10;21.00;99.90
11540;DHT22;5826;54.756;9.192;2023-07-08T07:50:35;21.00;99.90
11540;DHT22;5826;54.756;9.192;2023-07-08T07:53:01;21.10;99.90
11540;DHT22;5826;54.756;9.192;2023-07-08T07:55:27;21.20;99.90
11540;DHT22;5826;54.756;9.192;2023-07-08T07:57:52;21.20;99.90
11540;DHT22;5826;54.756;9.192;2023-07-08T08:00:18;21.30;99.90
11540;DHT22;5826;54.756;9.192;2023-07-08T08:02:43;21.40;99.90
11540;DHT22;5826;54.756;9.192;2023-07-08T08:05:09;21.50;99.90
11540;DHT22;5826;54.756;9.192;2023-07-08T08:07:34;21.60;99.90
11540;DHT22;5826;54.756;9.192;2023-07-08T08:10:01;21.60;99.90
11540;DHT22;5826;54.756;9.192;2023-07-08T08:12:27;21.70;99.90
11540;DHT22;5826;54.756;9.192;2023-07-08T08:14:52;21.80;99.90
11540;DHT22;5826;54.756;9.192;2023-07-08T08:17:18;21.90;99.90
11540;DHT22;5826;54.756;9.192;2023-07-08T08:19:43;22.00;99.90
11540;DHT22;5826;54.756;9.192;2023-07-08T08:22:09;22.10;99.90
11540;DHT22;5826;54.756;9.192;2023-07-08T08:24:34;22.20;99.90
11540;DHT22;5826;54.756;9.192;2023-07-08T08:27:00;22.20;99.90
11540;DHT22;5826;54.756;9.192;2023-07-08T08:29:25;22.30;99.90
11540;DHT22;5826;54.756;9.192;2023-07-08T08:31:51;22.40;99.90
11540;DHT22;5826;54.756;9.192;2023-07-08T08:34:17;22.40;99.90
11540;DHT22;5826;54.756;9.192;2023-07-08T08:36:42;22.50;99.90
11540;DHT22;5826;54.756;9.192;2023-07-08T08:39:08;22.60;99.90
11540;DHT22;5826;54.756;9.192;2023-07-08T08:41:38;22.60;99.90
11540;DHT22;5826;54.756;9.192;2023-07-08T08:44:08;22.70;99.90
11540;DHT22;5826;54.756;9.192;2023-07-08T08:46:38;22.70;99.90
11540;DHT22;5826;54.756;9.192;2023-07-08T08:51:42;22.80;99.90
11540;DHT22;5826;54.756;9.192;2023-07-08T08:54:08;23.00;99.90
11540;DHT22;5826;54.756;9.192;2023-07-08T08:59:42;23.10;99.90
11540;DHT22;5826;54.756;9.192;2023-07-08T09:04:50;23.30;99.90
11540;DHT22;5826;54.756;9.192;2023-07-08T09:07:18;23.40;99.90
11540;DHT22;5826;54.756;9.192;2023-07-08T09:12:24;23.60;99.90
11540;DHT22;5826;54.756;9.192;2023-07-08T09:14:50;23.60;99.90
11540;DHT22;5826;54.756;9.192;2023-07-08T09:17:26;23.70;99.90
11540;DHT22;5826;54.756;9.192;2023-07-08T09:23:22;23.90;99.90
11540;DHT22;5826;54.756;9.192;2023-07-08T09:26:01;24.00;99.90
11540;DHT22;5826;54.756;9.192;2023-07-08T09:28:43;24.10;99.90
11540;DHT22;5826;54.756;9.192;2023-07-08T09:31:26;24.20;99.90
11540;DHT22;5826;54.756;9.192;2023-07-08T09:34:15;24.20;99.90
11540;DHT22;5826;54.756;9.192;2023-07-08T09:36:43;24.20;99.90
11540;DHT22;5826;54.756;9.192;2023-07-08T09:39:15;24.30;99.90
11540;DHT22;5826;54.756;9.192;2023-07-08T09:41:43;24.40;99.90
11540;DHT22;5826;54.756;9.192;2023-07-08T09:44:24;24.50;99.90
11540;DHT22;5826;54.756;9.192;2023-07-08T09:46:52;24.60;99.90
11540;DHT22;5826;54.756;9.192;2023-07-08T09:49:24;24.70;99.90
11540;DHT22;5826;54.756;9.192;2023-07-08T09:51:52;24.80;99.90
11540;DHT22;5826;54.756;9.192;2023-07-08T09:54:21;24.90;99.90
11540;DHT22;5826;54.756;9.192;2023-07-08T09:57:05;24.90;99.90
11540;DHT22;5826;54.756;9.192;2023-07-08T09:59:47;25.00;99.90
11540;DHT22;5826;54.756;9.192;2023-07-08T10:04:58;25.10;99.90
11540;DHT22;5826;54.756;9.192;2023-07-08T10:07:30;25.30;99.90
11540;DHT22;5826;54.756;9.192;2023-07-08T10:09:59;25.20;99.90
11540;DHT22;5826;54.756;9.192;2023-07-08T10:12:25;25.30;99.90
11540;DHT22;5826;54.756;9.192;2023-07-08T10:14:56;25.30;99.90
11540;DHT22;5826;54.756;9.192;2023-07-08T10:17:23;25.40;99.90
11540;DHT22;5826;54.756;9.192;2023-07-08T10:19:49;25.50;99.90
11540;DHT22;5826;54.756;9.192;2023-07-08T10:22:38;25.50;99.90
11540;DHT22;5826;54.756;9.192;2023-07-08T10:25:29;25.70;99.90
11540;DHT22;5826;54.756;9.192;2023-07-08T10:28:24;25.80;99.90
11540;DHT22;5826;54.756;9.192;2023-07-08T10:33:50;25.90;99.90
11540;DHT22;5826;54.756;9.192;2023-07-08T10:42:02;26.10;99.90
11540;DHT22;5826;54.756;9.192;2023-07-08T10:44:54;26.20;99.90
11540;DHT22;5826;54.756;9.192;2023-07-08T10:47:43;26.30;99.90
11540;DHT22;5826;54.756;9.192;2023-07-08T10:53:42;26.40;99.90
11540;DHT22;5826;54.756;9.192;2023-07-08T10:56:40;26.50;99.90
11540;DHT22;5826;54.756;9.192;2023-07-08T10:59:34;26.60;99.90
11540;DHT22;5826;54.756;9.192;2023-07-08T11:04:56;26.70;99.90
11540;DHT22;5826;54.756;9.192;2023-07-08T11:07:30;26.80;99.90
11540;DHT22;5826;54.756;9.192;2023-07-08T11:10:19;27.00;99.90
11540;DHT22;5826;54.756;9.192;2023-07-08T11:12:56;27.00;99.90
11540;DHT22;5826;54.756;9.192;2023-07-08T11:15:36;27.10;99.90
11540;DHT22;5826;54.756;9.192;2023-07-08T11:18:30;27.20;99.90
11540;DHT22;5826;54.756;9.192;2023-07-08T11:21:12;27.30;99.90
11540;DHT22;5826;54.756;9.192;2023-07-08T11:24:00;27.30;99.90
11540;DHT22;5826;54.756;9.192;2023-07-08T11:26:33;27.50;99.90
11540;DHT22;5826;54.756;9.192;2023-07-08T11:29:05;27.50;99.90
11540;DHT22;5826;54.756;9.192;2023-07-08T11:31:37;27.60;99.90
11540;DHT22;5826;54.756;9.192;2023-07-08T11:34:03;27.70;99.90
11540;DHT22;5826;54.756;9.192;2023-07-08T11:36:29;27.80;99.90
11540;DHT22;5826;54.756;9.192;2023-07-08T11:38:56;27.90;99.90
11540;DHT22;5826;54.756;9.192;2023-07-08T11:41:25;28.10;99.90
11540;DHT22;5826;54.756;9.192;2023-07-08T11:43:53;28.10;99.90
11540;DHT22;5826;54.756;9.192;2023-07-08T11:46:27;28.20;99.90
11540;DHT22;5826;54.756;9.192;2023-07-08T11:48:56;28.20;99.90
11540;DHT22;5826;54.756;9.192;2023-07-08T11:51:26;28.10;99.90
11540;DHT22;5826;54.756;9.192;2023-07-08T11:54:09;28.30;99.90
11540;DHT22;5826;54.756;9.192;2023-07-08T11:59:17;28.40;99.60
11540;DHT22;5826;54.756;9.192;2023-07-08T12:01:57;28.40;99.90
11540;DHT22;5826;54.756;9.192;2023-07-08T12:07:08;28.50;99.60
11540;DHT22;5826;54.756;9.192;2023-07-08T12:09:38;28.60;99.60
11540;DHT22;5826;54.756;9.192;2023-07-08T12:12:14;28.70;99.60
11540;DHT22;5826;54.756;9.192;2023-07-08T12:14:41;28.80;99.80
11540;DHT22;5826;54.756;9.192;2023-07-08T12:17:13;28.80;99.50
11540;DHT22;5826;54.756;9.192;2023-07-08T12:19:42;28.90;99.70
11540;DHT22;5826;54.756;9.192;2023-07-08T12:22:10;28.90;99.70
11540;DHT22;5826;54.756;9.192;2023-07-08T12:24:37;29.00;99.50
11540;DHT22;5826;54.756;9.192;2023-07-08T12:27:03;29.10;99.60
11540;DHT22;5826;54.756;9.192;2023-07-08T12:29:28;29.10;99.30
11540;DHT22;5826;54.756;9.192;2023-07-08T12:31:54;29.20;99.20
11540;DHT22;5826;54.756;9.192;2023-07-08T12:34:23;29.30;99.20
11540;DHT22;5826;54.756;9.192;2023-07-08T12:36:50;29.30;99.30
11540;DHT22;5826;54.756;9.192;2023-07-08T12:39:16;29.40;98.90
11540;DHT22;5826;54.756;9.192;2023-07-08T12:41:44;29.50;99.00
11540;DHT22;5826;54.756;9.192;2023-07-08T12:44:21;29.50;99.00
11540;DHT22;5826;54.756;9.192;2023-07-08T12:46:48;29.50;99.10
11540;DHT22;5826;54.756;9.192;2023-07-08T12:49:15;30.00;99.00
11540;DHT22;5826;54.756;9.192;2023-07-08T12:51:42;29.60;98.90
11540;DHT22;5826;54.756;9.192;2023-07-08T12:54:09;29.70;98.90
11540;DHT22;5826;54.756;9.192;2023-07-08T12:56:36;29.90;98.80
11540;DHT22;5826;54.756;9.192;2023-07-08T12:59:04;29.90;98.60
11540;DHT22;5826;54.756;9.192;2023-07-08T13:01:32;30.00;98.80
11540;DHT22;5826;54.756;9.192;2023-07-08T13:04:04;30.10;98.50
11540;DHT22;5826;54.756;9.192;2023-07-08T13:06:32;30.10;98.50
11540;DHT22;5826;54.756;9.192;2023-07-08T13:11:46;30.30;96.90
11540;DHT22;5826;54.756;9.192;2023-07-08T13:14:12;30.40;97.70
11540;DHT22;5826;54.756;9.192;2023-07-08T13:16:40;30.10;97.30
11540;DHT22;5826;54.756;9.192;2023-07-08T13:19:06;30.60;97.60
11540;DHT22;5826;54.756;9.192;2023-07-08T13:21:32;30.60;97.70
11540;DHT22;5826;54.756;9.192;2023-07-08T13:23:58;30.60;97.70
11540;DHT22;5826;54.756;9.192;2023-07-08T13:26:27;30.70;97.50
11540;DHT22;5826;54.756;9.192;2023-07-08T13:29:02;30.80;97.80
11540;DHT22;5826;54.756;9.192;2023-07-08T13:31:34;30.90;97.10
11540;DHT22;5826;54.756;9.192;2023-07-08T13:34:15;30.90;97.10
11540;DHT22;5826;54.756;9.192;2023-07-08T13:36:44;31.00;96.90
11540;DHT22;5826;54.756;9.192;2023-07-08T13:39:19;31.00;96.90
11540;DHT22;5826;54.756;9.192;2023-07-08T13:41:45;31.20;96.50
11540;DHT22;5826;54.756;9.192;2023-07-08T13:44:11;31.30;96.30
11540;DHT22;5826;54.756;9.192;2023-07-08T13:46:45;31.50;96.00
11540;DHT22;5826;54.756;9.192;2023-07-08T13:49:27;31.50;95.60
11540;DHT22;5826;54.756;9.192;2023-07-08T13:52:25;31.60;95.80
11540;DHT22;5826;54.756;9.192;2023-07-08T13:54:57;31.80;94.60
11540;DHT22;5826;54.756;9.192;2023-07-08T13:57:29;31.80;95.70
11540;DHT22;5826;54.756;9.192;2023-07-08T13:59:56;31.90;94.90
11540;DHT22;5826;54.756;9.192;2023-07-08T14:02:26;32.00;95.40
11540;DHT22;5826;54.756;9.192;2023-07-08T14:04:52;32.10;95.10
11540;DHT22;5826;54.756;9.192;2023-07-08T14:07:21;32.20;94.90
11540;DHT22;5826;54.756;9.192;2023-07-08T14:09:47;32.20;95.20
11540;DHT22;5826;54.756;9.192;2023-07-08T14:12:13;32.20;95.00
11540;DHT22;5826;54.756;9.192;2023-07-08T14:14:38;32.30;94.90
11540;DHT22;5826;54.756;9.192;2023-07-08T14:17:04;32.30;95.00
11540;DHT22;5826;54.756;9.192;2023-07-08T14:19:32;32.30;94.70
11540;DHT22;5826;54.756;9.192;2023-07-08T14:22:02;32.30;94.80
11540;DHT22;5826;54.756;9.192;2023-07-08T14:24:27;32.30;94.80
11540;DHT22;5826;54.756;9.192;2023-07-08T14:26:53;32.40;95.00
11540;DHT22;5826;54.756;9.192;2023-07-08T14:29:19;32.40;94.90
11540;DHT22;5826;54.756;9.192;2023-07-08T14:31:45;32.40;95.00
11540;DHT22;5826;54.756;9.192;2023-07-08T14:34:27;32.40;95.00
11540;DHT22;5826;54.756;9.192;2023-07-08T14:36:53;32.40;94.10
11540;DHT22;5826;54.756;9.192;2023-07-08T14:39:19;32.40;94.80
11540;DHT22;5826;54.756;9.192;2023-07-08T14:41:46;32.40;94.60
11540;DHT22;5826;54.756;9.192;2023-07-08T14:44:22;32.50;94.90
11540;DHT22;5826;54.756;9.192;2023-07-08T14:46:48;32.50;93.60
11540;DHT22;5826;54.756;9.192;2023-07-08T14:49:17;32.70;94.40
11540;DHT22;5826;54.756;9.192;2023-07-08T14:51:42;32.70;94.10
11540;DHT22;5826;54.756;9.192;2023-07-08T14:54:08;32.70;94.00
11540;DHT22;5826;54.756;9.192;2023-07-08T14:56:33;32.70;93.90
11540;DHT22;5826;54.756;9.192;2023-07-08T14:58:59;32.60;94.30
11540;DHT22;5826;54.756;9.192;2023-07-08T15:01:25;32.50;93.80
11540;DHT22;5826;54.756;9.192;2023-07-08T15:03:55;32.50;93.80
11540;DHT22;5826;54.756;9.192;2023-07-08T15:06:21;32.50;94.00
11540;DHT22;5826;54.756;9.192;2023-07-08T15:08:47;32.50;94.00
11540;DHT22;5826;54.756;9.192;2023-07-08T15:11:13;32.50;93.80
11540;DHT22;5826;54.756;9.192;2023-07-08T15:13:40;32.50;94.00
11540;DHT22;5826;54.756;9.192;2023-07-08T15:16:13;32.50;93.80
11540;DHT22;5826;54.756;9.192;2023-07-08T15:18:39;32.50;93.40
11540;DHT22;5826;54.756;9.192;2023-07-08T15:21:09;32.50;93.80
11540;DHT22;5826;54.756;9.192;2023-07-08T15:23:35;32.50;93.90
11540;DHT22;5826;54.756;9.192;2023-07-08T15:26:00;32.30;93.10
11540;DHT22;5826;54.756;9.192;2023-07-08T15:28:49;32.30;93.00
11540;DHT22;5826;54.756;9.192;2023-07-08T15:31:18;32.30;91.10
11540;DHT22;5826;54.756;9.192;2023-07-08T15:33:45;32.20;93.40
11540;DHT22;5826;54.756;9.192;2023-07-08T15:36:12;32.10;93.10
11540;DHT22;5826;54.756;9.192;2023-07-08T15:38:39;32.10;93.10
11540;DHT22;5826;54.756;9.192;2023-07-08T15:41:10;32.00;93.20
11540;DHT22;5826;54.756;9.192;2023-07-08T15:43:39;31.90;93.50
11540;DHT22;5826;54.756;9.192;2023-07-08T15:46:05;31.80;92.90
11540;DHT22;5826;54.756;9.192;2023-07-08T15:48:32;31.80;93.10
11540;DHT22;5826;54.756;9.192;2023-07-08T15:50:58;31.60;92.70
11540;DHT22;5826;54.756;9.192;2023-07-08T15:53:23;31.50;92.60
11540;DHT22;5826;54.756;9.192;2023-07-08T15:55:48;31.50;92.50
11540;DHT22;5826;54.756;9.192;2023-07-08T15:58:19;31.40;92.80
11540;DHT22;5826;54.756;9.192;2023-07-08T16:00:45;31.30;92.50
11540;DHT22;5826;54.756;9.192;2023-07-08T16:03:31;31.20;92.90
11540;DHT22;5826;54.756;9.192;2023-07-08T16:05:58;31.10;88.50
11540;DHT22;5826;54.756;9.192;2023-07-08T16:08:24;31.10;92.60
11540;DHT22;5826;54.756;9.192;2023-07-08T16:10:56;31.00;92.70
11540;DHT22;5826;54.756;9.192;2023-07-08T16:13:28;30.90;93.10
11540;DHT22;5826;54.756;9.192;2023-07-08T16:15:54;30.90;92.70
11540;DHT22;5826;54.756;9.192;2023-07-08T16:18:20;30.80;92.70
11540;DHT22;5826;54.756;9.192;2023-07-08T16:20:46;30.70;92.90
11540;DHT22;5826;54.756;9.192;2023-07-08T16:23:12;30.60;93.10
11540;DHT22;5826;54.756;9.192;2023-07-08T16:25:41;30.50;93.10
11540;DHT22;5826;54.756;9.192;2023-07-08T16:28:34;30.40;93.00
11540;DHT22;5826;54.756;9.192;2023-07-08T16:31:00;30.30;93.00
11540;DHT22;5826;54.756;9.192;2023-07-08T16:33:26;30.20;93.00
11540;DHT22;5826;54.756;9.192;2023-07-08T16:35:51;30.10;93.30
11540;DHT22;5826;54.756;9.192;2023-07-08T16:38:17;30.00;92.70
11540;DHT22;5826;54.756;9.192;2023-07-08T16:40:42;30.00;93.10